createdAt,value
2023-04-15T00:00:13.912Z,96040.34
2023-04-15T00:01:19.510Z,96049.47
2023-04-15T00:02:21.675Z,96043.22
2023-04-15T00:03:23.733Z,96047.00
2023-04-15T00:04:25.842Z,96045.66
2023-04-15T00:05:27.539Z,96053.16
2023-04-15T00:06:29.139Z,96056.66
2023-04-15T00:07:31.708Z,96057.53
2023-04-15T00:08:33.662Z,96054.03
2023-04-15T00:09:35.220Z,96062.47
2023-04-15T00:10:36.967Z,96050.91
2023-04-15T00:11:38.502Z,96065.09
2023-04-15T00:12:40.488Z,96056.72
2023-04-15T00:13:42.098Z,96062.78
2023-04-15T00:14:43.647Z,96065.47
2023-04-15T00:15:45.261Z,96069.75
2023-04-15T00:16:46.831Z,96071.53
2023-04-15T00:17:52.052Z,96073.66
2023-04-15T00:18:53.610Z,96067.56
2023-04-15T00:19:55.186Z,96070.28
2023-04-15T00:20:56.766Z,96077.25
2023-04-15T00:21:58.331Z,96073.06
2023-04-15T00:23:00.612Z,96072.22
2023-04-15T00:24:02.399Z,96078.44
2023-04-15T00:25:04.130Z,96077.13
2023-04-15T00:26:05.721Z,96071.56
2023-04-15T00:27:07.288Z,96066.16
2023-04-15T00:28:09.462Z,96069.91
2023-04-15T00:29:11.006Z,96076.81
2023-04-15T00:30:13.436Z,96076.59
2023-04-15T00:31:15.391Z,96076.50
2023-04-15T00:32:16.924Z,96067.31
2023-04-15T00:33:18.455Z,96068.88
2023-04-15T00:34:20.324Z,96072.16
2023-04-15T00:35:21.912Z,96067.25
2023-04-15T00:36:23.467Z,96075.94
2023-04-15T00:37:25.045Z,96083.97
2023-04-15T00:38:26.847Z,96082.88
2023-04-15T00:39:28.388Z,96082.47
2023-04-15T00:40:29.941Z,96073.34
2023-04-15T00:41:31.822Z,96082.25
2023-04-15T00:42:35.017Z,96083.09
2023-04-15T00:43:36.644Z,96082.00
2023-04-15T00:44:38.148Z,96082.00
2023-04-15T00:45:39.686Z,96083.09
2023-04-15T00:46:43.414Z,96089.31
2023-04-15T00:47:45.756Z,96084.19
2023-04-15T00:48:47.740Z,96088.16
2023-04-15T00:49:49.336Z,96090.56
2023-04-15T00:50:50.839Z,96092.34
2023-04-15T00:51:52.443Z,96091.19
2023-04-15T00:52:53.953Z,96093.16
2023-04-15T00:53:55.567Z,96093.81
2023-04-15T00:54:57.727Z,96089.91
2023-04-15T00:55:59.312Z,96089.91
2023-04-15T00:57:02.150Z,96084.00
2023-04-15T00:58:03.727Z,96091.97
2023-04-15T00:59:08.760Z,96089.50
2023-04-15T01:00:11.903Z,96087.78
2023-04-15T01:01:13.717Z,96084.91
2023-04-15T01:02:15.608Z,96093.66
2023-04-15T01:03:17.253Z,96089.78
2023-04-15T01:04:19.108Z,96093.50
2023-04-15T01:05:20.765Z,96097.91
2023-04-15T01:06:22.318Z,96083.69
2023-04-15T01:07:24.022Z,96086.66
2023-04-15T01:08:29.347Z,96088.09
2023-04-15T01:09:30.979Z,96090.97
2023-04-15T01:10:33.432Z,96090.84
2023-04-15T01:11:35.425Z,96087.69
2023-04-15T01:12:37.844Z,96088.50
2023-04-15T01:13:40.092Z,96090.06
2023-04-15T01:14:41.858Z,96093.69
2023-04-15T01:15:44.650Z,96094.84
2023-04-15T01:16:46.999Z,96095.00
2023-04-15T01:17:48.982Z,96089.13
2023-04-15T01:18:50.668Z,96095.69
2023-04-15T01:19:52.804Z,96091.47
2023-04-15T01:20:54.545Z,96096.69
2023-04-15T01:21:56.582Z,96087.59
2023-04-15T01:22:58.897Z,96092.25
2023-04-15T01:24:01.497Z,96097.56
2023-04-15T01:25:10.488Z,96092.38
2023-04-15T01:26:12.717Z,96092.84
2023-04-15T01:27:14.241Z,96094.06
2023-04-15T01:28:16.496Z,96093.16
2023-04-15T01:29:18.684Z,96096.69
2023-04-15T01:30:20.315Z,96094.66
2023-04-15T01:31:22.234Z,96100.91
2023-04-15T01:32:24.414Z,96100.44
2023-04-15T01:33:26.257Z,96104.66
2023-04-15T01:34:30.527Z,96107.91
2023-04-15T01:35:32.369Z,96094.84
2023-04-15T01:36:34.394Z,96104.66
2023-04-15T01:37:36.875Z,96109.31
2023-04-15T01:38:38.610Z,96107.69
2023-04-15T01:39:40.480Z,96110.59
2023-04-15T01:40:42.026Z,96104.16
2023-04-15T01:41:44.144Z,96107.03
2023-04-15T01:42:45.749Z,96106.50
2023-04-15T01:43:47.256Z,96106.63
2023-04-15T01:44:48.808Z,96101.97
2023-04-15T01:45:50.673Z,96110.38
2023-04-15T01:46:52.602Z,96106.63
2023-04-15T01:47:54.492Z,96111.06
2023-04-15T01:48:56.647Z,96108.88
2023-04-15T01:49:58.144Z,96106.03
2023-04-15T01:50:59.788Z,96103.69
2023-04-15T01:52:01.392Z,96104.16
2023-04-15T01:53:02.923Z,96116.19
2023-04-15T01:54:04.496Z,96118.44
2023-04-15T01:55:08.034Z,96114.66
2023-04-15T01:56:09.616Z,96110.31
2023-04-15T01:57:11.132Z,96107.16
2023-04-15T01:58:12.661Z,96115.69
2023-04-15T01:59:14.240Z,96103.94
2023-04-15T02:00:16.574Z,96112.81
2023-04-15T02:01:19.874Z,96116.69
2023-04-15T02:02:21.839Z,96114.63
2023-04-15T02:03:25.600Z,96118.09
2023-04-15T02:04:28.092Z,96115.53
2023-04-15T02:05:29.774Z,96113.56
2023-04-15T02:06:31.764Z,96113.69
2023-04-15T02:07:33.400Z,96115.13
2023-04-15T02:08:35.000Z,96111.09
2023-04-15T02:09:36.542Z,96106.44
2023-04-15T02:10:38.778Z,96107.25
2023-04-15T02:11:40.379Z,96111.81
2023-04-15T02:12:42.158Z,96105.97
2023-04-15T02:13:43.709Z,96104.00
2023-04-15T02:14:45.257Z,96105.63
2023-04-15T02:15:50.758Z,96105.88
2023-04-15T02:16:52.359Z,96106.78
2023-04-15T02:17:55.415Z,96100.53
2023-04-15T02:18:57.322Z,96105.63
2023-04-15T02:19:59.349Z,96104.31
2023-04-15T02:21:00.901Z,96105.16
2023-04-15T02:22:02.666Z,96103.50
2023-04-15T02:23:07.359Z,96105.06
2023-04-15T02:24:09.074Z,96107.09
2023-04-15T02:25:11.040Z,96106.41
2023-04-15T02:26:13.004Z,96102.97
2023-04-15T02:27:18.758Z,96109.28
2023-04-15T02:28:20.467Z,96104.16
2023-04-15T02:29:23.458Z,96100.59
2023-04-15T02:30:25.956Z,96107.63
2023-04-15T02:31:27.663Z,96100.56
2023-04-15T02:32:29.377Z,96104.53
2023-04-15T02:33:32.402Z,96104.41
2023-04-15T02:34:33.956Z,96109.53
2023-04-15T02:35:36.524Z,96108.25
2023-04-15T02:36:39.157Z,96112.13
2023-04-15T02:37:43.833Z,96113.84
2023-04-15T02:38:45.911Z,96116.16
2023-04-15T02:39:47.479Z,96119.34
2023-04-15T02:40:50.360Z,96118.91
2023-04-15T02:41:52.496Z,96118.91
2023-04-15T02:42:54.017Z,96118.38
2023-04-15T02:43:55.871Z,96118.97
2023-04-15T02:44:58.314Z,96119.81
2023-04-15T02:45:59.858Z,96111.22
2023-04-15T02:47:01.414Z,96113.28
2023-04-15T02:48:06.466Z,96110.97
2023-04-15T02:49:08.679Z,96109.78
2023-04-15T02:50:12.832Z,96104.13
2023-04-15T02:51:20.036Z,96101.25
2023-04-15T02:52:21.609Z,96111.53
2023-04-15T02:53:23.157Z,96109.56
2023-04-15T02:54:25.016Z,96115.06
2023-04-15T02:55:26.937Z,96113.53
2023-04-15T02:56:28.509Z,96124.13
2023-04-15T02:57:30.136Z,96118.16
2023-04-15T02:58:31.839Z,96114.75
2023-04-15T02:59:33.395Z,96118.38
2023-04-15T03:00:34.985Z,96113.34
2023-04-15T03:01:36.560Z,96117.72
2023-04-15T03:02:39.952Z,96117.56
2023-04-15T03:03:41.903Z,96126.47
2023-04-15T03:04:43.510Z,96128.63
2023-04-15T03:05:44.998Z,96119.25
2023-04-15T03:06:46.552Z,96128.47
2023-04-15T03:07:48.058Z,96132.03
2023-04-15T03:08:49.662Z,96133.41
2023-04-15T03:09:51.612Z,96131.19
2023-04-15T03:10:53.690Z,96126.72
2023-04-15T03:11:55.315Z,96134.69
2023-04-15T03:12:56.851Z,96136.78
2023-04-15T03:13:58.823Z,96134.06
2023-04-15T03:15:02.104Z,96140.47
2023-04-15T03:16:03.751Z,96142.00
2023-04-15T03:17:05.340Z,96141.38
2023-04-15T03:18:06.937Z,96138.25
2023-04-15T03:19:08.589Z,96142.38
2023-04-15T03:20:10.437Z,96151.16
2023-04-15T03:21:11.994Z,96142.25
2023-04-15T03:22:13.502Z,96144.78
2023-04-15T03:23:15.449Z,96146.78
2023-04-15T03:24:17.050Z,96149.25
2023-04-15T03:25:18.552Z,96154.88
2023-04-15T03:26:30.487Z,96153.59
2023-04-15T03:27:32.200Z,96149.03
2023-04-15T03:28:34.154Z,96150.72
2023-04-15T03:29:35.756Z,96144.56
2023-04-15T03:30:37.326Z,96142.59
2023-04-15T03:31:38.901Z,96139.31
2023-04-15T03:32:40.785Z,96139.13
2023-04-15T03:33:42.386Z,96138.91
2023-04-15T03:34:44.303Z,96135.78
2023-04-15T03:35:45.973Z,96131.75
2023-04-15T03:36:47.616Z,96135.41
2023-04-15T03:37:49.315Z,96129.03
2023-04-15T03:38:51.024Z,96138.13
2023-04-15T03:39:52.547Z,96135.19
2023-04-15T03:40:54.045Z,96131.69
2023-04-15T03:41:56.464Z,96135.63
2023-04-15T03:42:58.063Z,96137.22
2023-04-15T03:43:59.946Z,96133.94
2023-04-15T03:45:01.657Z,96142.25
2023-04-15T03:46:03.514Z,96144.41
2023-04-15T03:47:05.101Z,96144.66
2023-04-15T03:48:17.060Z,96145.59
2023-04-15T03:49:19.974Z,96143.53
2023-04-15T03:50:21.874Z,96145.66
2023-04-15T03:51:23.389Z,96140.59
2023-04-15T03:52:25.064Z,96141.50
2023-04-15T03:53:26.622Z,96140.22
2023-04-15T03:54:28.149Z,96140.41
2023-04-15T03:55:29.709Z,96139.41
2023-04-15T03:56:31.394Z,96137.59
2023-04-15T03:57:37.947Z,96139.41
2023-04-15T03:58:39.460Z,96138.13
2023-04-15T03:59:41.130Z,96139.94
2023-04-15T04:00:42.726Z,96143.97
2023-04-15T04:01:44.328Z,96143.34
2023-04-15T04:02:46.292Z,96139.13
2023-04-15T04:03:48.169Z,96144.88
2023-04-15T04:04:49.829Z,96150.22
2023-04-15T04:05:51.774Z,96150.69
2023-04-15T04:06:53.302Z,96158.00
2023-04-15T04:07:54.889Z,96162.91
2023-04-15T04:08:56.741Z,96155.81
2023-04-15T04:09:58.413Z,96156.28
2023-04-15T04:11:00.223Z,96165.19
2023-04-15T04:12:02.625Z,96159.19
2023-04-15T04:13:04.189Z,96163.88
2023-04-15T04:14:05.714Z,96167.19
2023-04-15T04:15:08.137Z,96170.50
2023-04-15T04:16:09.780Z,96173.19
2023-04-15T04:17:11.804Z,96172.06
2023-04-15T04:18:13.459Z,96180.25
2023-04-15T04:19:15.189Z,96180.84
2023-04-15T04:20:16.816Z,96179.84
2023-04-15T04:21:18.516Z,96185.75
2023-04-15T04:22:24.167Z,96187.91
2023-04-15T04:23:25.796Z,96197.41
2023-04-15T04:24:27.360Z,96199.75
2023-04-15T04:25:29.005Z,96205.91
2023-04-15T04:26:30.564Z,96204.84
2023-04-15T04:27:32.062Z,96203.28
2023-04-15T04:28:33.668Z,96202.50
2023-04-15T04:29:35.211Z,96195.47
2023-04-15T04:30:36.812Z,96206.09
2023-04-15T04:31:38.573Z,96200.16
2023-04-15T04:32:40.223Z,96195.94
2023-04-15T04:33:41.865Z,96196.41
2023-04-15T04:34:43.384Z,96194.66
2023-04-15T04:35:44.911Z,96194.66
2023-04-15T04:36:46.537Z,96194.34
2023-04-15T04:37:48.090Z,96190.31
2023-04-15T04:38:49.693Z,96194.34
2023-04-15T04:39:51.295Z,96197.50
2023-04-15T04:40:52.874Z,96193.41
2023-04-15T04:41:54.450Z,96192.03
2023-04-15T04:42:56.015Z,96202.66
2023-04-15T04:43:57.564Z,96197.81
2023-04-15T04:44:59.100Z,96205.16
2023-04-15T04:46:00.754Z,96203.44
2023-04-15T04:47:02.324Z,96209.81
2023-04-15T04:48:07.254Z,96211.69
2023-04-15T04:49:08.888Z,96216.56
2023-04-15T04:50:10.640Z,96212.94
2023-04-15T04:51:12.197Z,96213.88
2023-04-15T04:52:13.729Z,96218.06
2023-04-15T04:53:15.459Z,96212.91
2023-04-15T04:54:17.648Z,96213.50
2023-04-15T04:55:19.384Z,96222.06
2023-04-15T04:56:21.378Z,96220.13
2023-04-15T04:57:23.010Z,96215.28
2023-04-15T04:58:24.589Z,96219.28
2023-04-15T04:59:26.502Z,96220.34
2023-04-15T05:00:28.182Z,96213.09
2023-04-15T05:01:29.867Z,96222.09
2023-04-15T05:02:32.527Z,96219.25
2023-04-15T05:03:34.364Z,96221.25
2023-04-15T05:04:37.162Z,96221.97
2023-04-15T05:05:41.138Z,96224.91
2023-04-15T05:06:42.662Z,96230.06
2023-04-15T05:07:45.002Z,96230.47
2023-04-15T05:08:47.137Z,96230.56
2023-04-15T05:09:48.682Z,96227.09
2023-04-15T05:10:50.471Z,96224.72
2023-04-15T05:11:51.976Z,96237.44
2023-04-15T05:12:53.546Z,96232.75
2023-04-15T05:13:55.408Z,96242.59
2023-04-15T05:14:56.917Z,96246.06
2023-04-15T05:15:58.587Z,96246.56
2023-04-15T05:17:00.193Z,96247.03
2023-04-15T05:18:01.815Z,96250.38
2023-04-15T05:19:03.580Z,96255.94
2023-04-15T05:20:05.640Z,96253.03
2023-04-15T05:21:07.758Z,96249.69
2023-04-15T05:22:09.390Z,96256.16
2023-04-15T05:23:11.014Z,96245.00
2023-04-15T05:24:12.592Z,96249.81
2023-04-15T05:25:14.149Z,96246.56
2023-04-15T05:26:15.759Z,96256.59
2023-04-15T05:27:17.314Z,96253.34
2023-04-15T05:28:18.877Z,96258.38
2023-04-15T05:29:20.885Z,96259.34
2023-04-15T05:30:22.400Z,96260.59
2023-04-15T05:31:23.984Z,96259.56
2023-04-15T05:32:25.659Z,96257.69
2023-04-15T05:33:27.629Z,96249.66
2023-04-15T05:34:29.258Z,96249.94
2023-04-15T05:35:30.832Z,96255.94
2023-04-15T05:36:32.448Z,96253.03
2023-04-15T05:37:34.100Z,96264.09
2023-04-15T05:38:35.931Z,96252.28
2023-04-15T05:39:37.497Z,96257.25
2023-04-15T05:40:38.983Z,96259.50
2023-04-15T05:41:40.594Z,96262.41
2023-04-15T05:42:42.104Z,96262.84
2023-04-15T05:43:43.643Z,96264.41
2023-04-15T05:44:45.221Z,96257.91
2023-04-15T05:45:46.820Z,96256.56
2023-04-15T05:46:48.393Z,96267.47
2023-04-15T05:47:51.036Z,96253.84
2023-04-15T05:48:54.667Z,96267.47
2023-04-15T05:49:58.932Z,96261.88
2023-04-15T05:51:01.309Z,96261.00
2023-04-15T05:52:03.312Z,96264.22
2023-04-15T05:53:04.942Z,96260.28
2023-04-15T05:54:06.878Z,96264.75
2023-04-15T05:55:08.871Z,96265.53
2023-04-15T05:56:10.665Z,96264.59
2023-04-15T05:57:12.196Z,96265.59
2023-04-15T05:58:13.708Z,96268.88
2023-04-15T05:59:15.392Z,96271.31
2023-04-15T06:00:17.042Z,96276.84
2023-04-15T06:01:18.726Z,96274.72
2023-04-15T06:02:20.557Z,96275.50
2023-04-15T06:03:23.176Z,96280.09
2023-04-15T06:04:24.940Z,96272.97
2023-04-15T06:05:26.617Z,96267.59
2023-04-15T06:06:28.613Z,96275.53
2023-04-15T06:07:30.176Z,96273.47
2023-04-15T06:08:31.760Z,96278.16
2023-04-15T06:09:33.906Z,96271.06
2023-04-15T06:10:36.829Z,96272.31
2023-04-15T06:11:38.514Z,96267.09
2023-04-15T06:12:40.191Z,96265.75
2023-04-15T06:13:41.742Z,96262.16
2023-04-15T06:14:43.378Z,96269.25
2023-04-15T06:15:44.955Z,96270.34
2023-04-15T06:16:47.055Z,96269.84
2023-04-15T06:17:48.693Z,96263.63
2023-04-15T06:18:50.419Z,96261.59
2023-04-15T06:19:55.696Z,96258.47
2023-04-15T06:20:57.548Z,96261.69
2023-04-15T06:21:59.377Z,96265.13
2023-04-15T06:23:01.150Z,96270.28
2023-04-15T06:24:02.852Z,96270.34
2023-04-15T06:25:05.217Z,96272.28
2023-04-15T06:26:07.060Z,96274.41
2023-04-15T06:27:08.600Z,96280.09
2023-04-15T06:28:10.344Z,96275.16
2023-04-15T06:29:11.918Z,96276.91
2023-04-15T06:30:13.553Z,96279.41
2023-04-15T06:31:15.295Z,96272.66
2023-04-15T06:32:16.893Z,96276.13
2023-04-15T06:33:18.438Z,96276.63
2023-04-15T06:34:20.081Z,96282.19
2023-04-15T06:35:22.199Z,96276.97
2023-04-15T06:36:23.719Z,96270.31
2023-04-15T06:37:25.382Z,96275.03
2023-04-15T06:38:26.911Z,96283.06
2023-04-15T06:39:28.469Z,96285.50
2023-04-15T06:40:30.037Z,96284.50
2023-04-15T06:41:31.786Z,96275.47
2023-04-15T06:42:34.064Z,96278.94
2023-04-15T06:43:35.713Z,96274.28
2023-04-15T06:44:37.329Z,96274.09
2023-04-15T06:45:39.537Z,96280.50
2023-04-15T06:46:41.399Z,96283.78
2023-04-15T06:47:43.634Z,96284.16
2023-04-15T06:48:45.687Z,96281.59
2023-04-15T06:49:47.230Z,96286.84
2023-04-15T06:50:52.577Z,96290.91
2023-04-15T06:51:54.172Z,96288.47
2023-04-15T06:52:56.277Z,96287.91
2023-04-15T06:53:57.935Z,96293.28
2023-04-15T06:54:59.825Z,96292.16
2023-04-15T06:56:01.407Z,96291.94
2023-04-15T06:57:03.025Z,96293.13
2023-04-15T06:58:04.628Z,96290.16
2023-04-15T06:59:06.659Z,96289.84
2023-04-15T07:00:08.730Z,96294.28
2023-04-15T07:01:10.461Z,96281.06
2023-04-15T07:02:14.046Z,96283.63
2023-04-15T07:03:15.656Z,96282.41
2023-04-15T07:04:17.248Z,96283.78
2023-04-15T07:05:19.106Z,96286.94
2023-04-15T07:06:21.971Z,96284.00
2023-04-15T07:07:23.447Z,96286.81
2023-04-15T07:08:25.668Z,96280.28
2023-04-15T07:09:27.346Z,96281.81
2023-04-15T07:10:28.967Z,96282.50
2023-04-15T07:11:30.565Z,96281.28
2023-04-15T07:12:32.185Z,96277.53
2023-04-15T07:13:34.566Z,96279.03
2023-04-15T07:14:36.574Z,96282.53
2023-04-15T07:15:38.187Z,96284.78
2023-04-15T07:16:39.811Z,96282.34
2023-04-15T07:17:43.283Z,96287.69
2023-04-15T07:18:44.987Z,96278.56
2023-04-15T07:19:46.518Z,96277.09
2023-04-15T07:20:48.816Z,96277.19
2023-04-15T07:21:50.494Z,96278.34
2023-04-15T07:22:52.054Z,96282.63
2023-04-15T07:23:53.615Z,96276.47
2023-04-15T07:24:55.146Z,96277.22
2023-04-15T07:25:57.458Z,96282.69
2023-04-15T07:27:00.860Z,96275.03
2023-04-15T07:28:03.023Z,96275.44
2023-04-15T07:29:04.580Z,96277.47
2023-04-15T07:30:06.970Z,96279.09
2023-04-15T07:31:09.064Z,96275.22
2023-04-15T07:32:10.883Z,96271.50
2023-04-15T07:33:12.693Z,96275.47
2023-04-15T07:34:14.655Z,96269.34
2023-04-15T07:35:16.321Z,96275.47
2023-04-15T07:36:17.825Z,96279.00
2023-04-15T07:37:19.923Z,96282.84
2023-04-15T07:38:22.206Z,96282.09
2023-04-15T07:39:23.757Z,96279.81
2023-04-15T07:40:25.427Z,96281.59
2023-04-15T07:41:27.579Z,96289.34
2023-04-15T07:42:29.418Z,96282.44
2023-04-15T07:43:30.999Z,96278.63
2023-04-15T07:44:32.591Z,96282.53
2023-04-15T07:45:34.339Z,96281.44
2023-04-15T07:46:37.309Z,96282.16
2023-04-15T07:47:38.945Z,96279.84
2023-04-15T07:48:40.798Z,96284.06
2023-04-15T07:49:43.447Z,96282.91
2023-04-15T07:50:45.002Z,96282.53
2023-04-15T07:51:46.579Z,96283.72
2023-04-15T07:52:49.140Z,96278.69
2023-04-15T07:53:50.762Z,96279.13
2023-04-15T07:54:52.293Z,96277.63
2023-04-15T07:55:53.781Z,96278.03
2023-04-15T07:56:56.492Z,96276.50
2023-04-15T07:57:58.057Z,96270.28
2023-04-15T07:59:02.315Z,96271.84
2023-04-15T08:00:07.601Z,96266.44
2023-04-15T08:01:09.188Z,96273.44
2023-04-15T08:02:11.810Z,96268.81
2023-04-15T08:03:13.719Z,96265.72
2023-04-15T08:04:15.819Z,96268.03
2023-04-15T08:05:17.507Z,96269.50
2023-04-15T08:06:19.553Z,96263.31
2023-04-15T08:07:21.444Z,96264.84
2023-04-15T08:08:23.172Z,96263.72
2023-04-15T08:09:24.760Z,96264.16
2023-04-15T08:10:26.264Z,96258.72
2023-04-15T08:11:27.904Z,96266.47
2023-04-15T08:12:29.527Z,96267.25
2023-04-15T08:13:31.102Z,96268.81
2023-04-15T08:14:32.727Z,96261.06
2023-04-15T08:15:34.357Z,96258.34
2023-04-15T08:16:36.101Z,96264.16
2023-04-15T08:17:37.715Z,96260.63
2023-04-15T08:18:39.293Z,96259.44
2023-04-15T08:19:41.368Z,96254.72
2023-04-15T08:20:43.265Z,96253.88
2023-04-15T08:21:44.824Z,96255.75
2023-04-15T08:22:47.936Z,96263.78
2023-04-15T08:23:51.144Z,96264.50
2023-04-15T08:24:52.679Z,96257.09
2023-04-15T08:25:54.187Z,96251.56
2023-04-15T08:26:56.697Z,96259.59
2023-04-15T08:27:58.295Z,96256.91
2023-04-15T08:29:00.111Z,96251.19
2023-04-15T08:30:04.639Z,96257.41
2023-04-15T08:31:06.836Z,96263.59
2023-04-15T08:32:09.607Z,96256.19
2023-04-15T08:33:11.157Z,96255.72
2023-04-15T08:34:13.233Z,96252.09
2023-04-15T08:35:15.476Z,96255.50
2023-04-15T08:36:17.648Z,96250.41
2023-04-15T08:37:19.172Z,96245.25
2023-04-15T08:38:20.738Z,96247.22
2023-04-15T08:39:22.293Z,96241.34
2023-04-15T08:40:30.753Z,96244.09
2023-04-15T08:41:45.453Z,96245.25
2023-04-15T08:42:53.026Z,96245.56
2023-04-15T08:43:58.995Z,96244.41
2023-04-15T08:45:01.895Z,96251.28
2023-04-15T08:46:05.228Z,96240.56
2023-04-15T08:47:08.697Z,96241.47
2023-04-15T08:48:16.639Z,96237.50
2023-04-15T08:49:21.547Z,96241.38
2023-04-15T08:50:25.374Z,96239.47
2023-04-15T08:51:27.231Z,96238.25
2023-04-15T08:52:31.597Z,96249.06
2023-04-15T08:53:33.786Z,96245.28
2023-04-15T08:54:36.568Z,96250.44
2023-04-15T08:55:45.925Z,96244.78
2023-04-15T08:56:48.842Z,96242.44
2023-04-15T08:57:51.303Z,96245.94
2023-04-15T08:58:53.370Z,96248.69
2023-04-15T08:59:58.448Z,96251.78
2023-04-15T09:01:00.131Z,96248.31
2023-04-15T09:02:02.785Z,96246.75
2023-04-15T09:03:08.915Z,96250.97
2023-04-15T09:04:12.538Z,96240.47
2023-04-15T09:05:14.450Z,96243.16
2023-04-15T09:06:17.672Z,96245.44
2023-04-15T09:07:19.311Z,96249.75
2023-04-15T09:08:21.025Z,96253.25
2023-04-15T09:09:22.846Z,96254.88
2023-04-15T09:10:24.510Z,96250.19
2023-04-15T09:11:26.157Z,96236.22
2023-04-15T09:12:27.669Z,96242.38
2023-04-15T09:13:29.863Z,96236.53
2023-04-15T09:14:34.006Z,96229.50
2023-04-15T09:15:38.532Z,96226.56
2023-04-15T09:17:02.925Z,96227.75
2023-04-15T09:18:05.850Z,96227.38
2023-04-15T09:19:24.476Z,96237.78
2023-04-15T09:20:26.392Z,96229.19
2023-04-15T09:21:29.545Z,96225.25
2023-04-15T09:22:34.299Z,96221.38
2023-04-15T09:23:36.926Z,96221.31
2023-04-15T09:24:40.973Z,96222.78
2023-04-15T09:25:42.659Z,96216.94
2023-04-15T09:26:44.250Z,96224.75
2023-04-15T09:27:49.916Z,96216.00
2023-04-15T09:28:51.449Z,96219.94
2023-04-15T09:29:54.195Z,96220.00
2023-04-15T09:30:59.926Z,96208.38
2023-04-15T09:32:11.722Z,96220.03
2023-04-15T09:33:14.965Z,96219.66
2023-04-15T09:34:16.606Z,96215.38
2023-04-15T09:35:18.975Z,96209.94
2023-04-15T09:36:20.545Z,96217.69
2023-04-15T09:37:35.681Z,96210.31
2023-04-15T09:38:55.254Z,96195.16
2023-04-15T09:39:56.864Z,96200.59
2023-04-15T09:40:59.354Z,96196.78
2023-04-15T09:42:07.694Z,96197.53
2023-04-15T09:43:13.051Z,96191.38
2023-04-15T09:44:25.303Z,96197.56
2023-04-15T09:45:29.500Z,96191.34
2023-04-15T09:46:45.097Z,96197.94
2023-04-15T09:47:46.633Z,96193.66
2023-04-15T09:49:07.749Z,96195.97
2023-04-15T09:50:09.707Z,96202.94
2023-04-15T09:51:11.285Z,96204.53
2023-04-15T09:52:14.051Z,96195.22
2023-04-15T09:53:20.560Z,96192.84
2023-04-15T09:54:22.436Z,96192.84
2023-04-15T09:55:23.996Z,96194.38
2023-04-15T09:56:34.828Z,96188.94
2023-04-15T09:57:38.106Z,96184.56
2023-04-15T09:58:41.654Z,96184.06
2023-04-15T09:59:43.201Z,96182.88
2023-04-15T10:00:47.091Z,96183.66
2023-04-15T10:01:49.163Z,96183.31
2023-04-15T10:02:52.016Z,96185.28
2023-04-15T10:03:57.004Z,96182.53
2023-04-15T10:04:59.702Z,96183.22
2023-04-15T10:06:02.200Z,96182.50
2023-04-15T10:07:05.517Z,96181.72
2023-04-15T10:08:07.813Z,96177.16
2023-04-15T10:09:09.639Z,96178.75
2023-04-15T10:10:12.926Z,96173.44
2023-04-15T10:11:14.550Z,96175.78
2023-04-15T10:12:18.190Z,96170.38
2023-04-15T10:13:22.484Z,96173.53
2023-04-15T10:14:26.952Z,96172.78
2023-04-15T10:15:29.874Z,96172.03
2023-04-15T10:16:33.081Z,96178.97
2023-04-15T10:17:37.247Z,96170.44
2023-04-15T10:18:43.104Z,96162.69
2023-04-15T10:19:45.749Z,96170.41
2023-04-15T10:20:49.012Z,96162.59
2023-04-15T10:21:51.557Z,96168.34
2023-04-15T10:22:53.693Z,96165.59
2023-04-15T10:23:55.564Z,96160.06
2023-04-15T10:24:57.758Z,96155.72
2023-04-15T10:26:00.116Z,96158.00
2023-04-15T10:27:04.418Z,96156.41
2023-04-15T10:28:08.393Z,96155.22
2023-04-15T10:29:10.928Z,96159.44
2023-04-15T10:30:12.945Z,96158.34
2023-04-15T10:31:15.092Z,96154.09
2023-04-15T10:32:20.178Z,96144.34
2023-04-15T10:33:24.551Z,96151.78
2023-04-15T10:34:27.089Z,96156.09
2023-04-15T10:35:30.735Z,96153.75
2023-04-15T10:36:33.415Z,96149.13
2023-04-15T10:37:39.042Z,96149.88
2023-04-15T10:38:43.234Z,96153.28
2023-04-15T10:39:45.209Z,96158.22
2023-04-15T10:40:47.023Z,96156.63
2023-04-15T10:42:07.387Z,96151.78
2023-04-15T10:43:25.589Z,96148.69
2023-04-15T10:44:27.142Z,96156.50
2023-04-15T10:45:33.165Z,96150.19
2023-04-15T10:46:47.492Z,96148.22
2023-04-15T10:47:55.699Z,96143.09
2023-04-15T10:48:57.726Z,96137.53
2023-04-15T10:50:01.418Z,96145.16
2023-04-15T10:51:05.107Z,96142.03
2023-04-15T10:52:08.694Z,96147.47
2023-04-15T10:53:11.143Z,96147.44
2023-04-15T10:54:24.689Z,96153.00
2023-04-15T10:55:31.388Z,96148.50
2023-04-15T10:56:33.026Z,96145.63
2023-04-15T10:57:37.714Z,96151.94
2023-04-15T10:58:43.362Z,96146.59
2023-04-15T11:00:00.071Z,96142.53
2023-04-15T11:01:03.480Z,96150.25
2023-04-15T11:02:07.362Z,96147.50
2023-04-15T11:03:10.365Z,96151.25
2023-04-15T11:04:12.196Z,96146.50
2023-04-15T11:05:16.166Z,96136.31
2023-04-15T11:06:17.814Z,96140.13
2023-04-15T11:07:39.385Z,96133.75
2023-04-15T11:08:59.296Z,96137.09
2023-04-15T11:10:01.833Z,96142.03
2023-04-15T11:11:03.455Z,96144.63
2023-04-15T11:12:09.795Z,96147.31
2023-04-15T11:13:11.423Z,96136.25
2023-04-15T11:14:16.400Z,96138.25
2023-04-15T11:15:37.974Z,96132.19
2023-04-15T11:16:45.028Z,96131.47
2023-04-15T11:17:46.774Z,96137.00
2023-04-15T11:18:57.442Z,96137.28
2023-04-15T11:19:59.000Z,96137.25
2023-04-15T11:21:03.525Z,96141.56
2023-04-15T11:22:11.912Z,96135.91
2023-04-15T11:23:15.851Z,96144.78
2023-04-15T11:24:27.216Z,96143.66
2023-04-15T11:25:31.088Z,96148.63
2023-04-15T11:26:32.889Z,96147.41
2023-04-15T11:27:34.436Z,96144.28
2023-04-15T11:28:38.301Z,96143.88
2023-04-15T11:29:40.781Z,96144.63
2023-04-15T11:30:42.793Z,96145.84
2023-04-15T11:31:49.609Z,96145.81
2023-04-15T11:32:52.483Z,96147.38
2023-04-15T11:34:01.679Z,96148.09
2023-04-15T11:35:03.443Z,96142.91
2023-04-15T11:36:05.351Z,96152.47
2023-04-15T11:37:07.920Z,96140.34
2023-04-15T11:38:15.403Z,96147.72
2023-04-15T11:39:16.984Z,96143.28
2023-04-15T11:40:29.632Z,96147.84
2023-04-15T11:41:31.250Z,96141.97
2023-04-15T11:42:46.467Z,96141.06
2023-04-15T11:43:51.639Z,96143.63
2023-04-15T11:45:07.552Z,96145.97
2023-04-15T11:46:09.181Z,96140.13
2023-04-15T11:47:26.243Z,96142.03
2023-04-15T11:48:30.727Z,96144.72
2023-04-15T11:49:34.027Z,96148.28
2023-04-15T11:50:36.876Z,96145.47
2023-04-15T11:51:38.596Z,96150.00
2023-04-15T11:52:40.800Z,96151.34
2023-04-15T11:53:46.529Z,96138.94
2023-04-15T11:54:48.360Z,96140.75
2023-04-15T11:55:52.795Z,96134.50
2023-04-15T11:56:54.660Z,96143.06
2023-04-15T11:58:25.310Z,96135.28
2023-04-15T11:59:35.658Z,96137.56
2023-04-15T12:00:54.194Z,96133.91
2023-04-15T12:01:56.360Z,96135.41
2023-04-15T12:03:21.911Z,96137.75
2023-04-15T12:04:25.368Z,96132.41
2023-04-15T12:05:27.308Z,96129.69
2023-04-15T12:06:39.093Z,96131.25
2023-04-15T12:08:02.950Z,96134.41
2023-04-15T12:09:08.720Z,96135.06
2023-04-15T12:10:10.662Z,96126.31
2023-04-15T12:11:12.226Z,96123.91
2023-04-15T12:12:13.825Z,96132.09
2023-04-15T12:13:15.400Z,96123.94
2023-04-15T12:14:32.924Z,96130.88
2023-04-15T12:15:39.336Z,96131.66
2023-04-15T12:17:05.015Z,96133.22
2023-04-15T12:18:06.636Z,96131.81
2023-04-15T12:19:13.583Z,96130.38
2023-04-15T12:20:21.527Z,96134.22